Time;durP1;ratioP1;P1;durP2;ratioP2;P2;SDS_P1;SDS_P2;PMS_P1;PMS_P2;Temp;Humidity;BMP_temperature;BMP_pressure;BME280_temperature;BME280_humidity;BME280_pressure;Samples;Min_cycle;Max_cycle;Signal;HPM_P1;HPM_P2
2021/06/07 00:00:50;;;;;;;6.30;4.03;;;10.90;99.90;;;;;;5045822;28;20056;-66
2021/06/07 00:03:16;;;;;;;6.85;3.60;;;10.90;99.90;;;;;;5046070;28;20095;-66
2021/06/07 00:05:42;;;;;;;4.72;3.60;;;10.80;99.90;;;;;;5046136;28;20041;-64
2021/06/07 00:08:09;;;;;;;5.25;3.53;;;10.80;99.90;;;;;;5045971;28;20052;-65
2021/06/07 00:10:35;;;;;;;4.53;3.40;;;10.80;99.90;;;;;;5045589;28;20041;-66
2021/06/07 00:13:00;;;;;;;5.47;3.75;;;10.80;99.90;;;;;;5045491;28;20223;-66
2021/06/07 00:15:28;;;;;;;7.75;4.10;;;10.70;99.90;;;;;;5045106;28;20969;-66
2021/06/07 00:17:54;;;;;;;5.68;4.32;;;10.70;99.90;;;;;;5045722;28;20045;-64
2021/06/07 00:20:36;;;;;;;7.00;3.95;;;10.70;99.90;;;;;;5045801;28;20045;-67
2021/06/07 00:23:03;;;;;;;5.68;4.10;;;10.70;99.90;;;;;;5045496;28;20045;-65
2021/06/07 00:25:29;;;;;;;5.00;4.35;;;10.70;99.90;;;;;;5045503;28;20505;-65
2021/06/07 00:27:55;;;;;;;9.02;4.57;;;10.70;99.90;;;;;;5045188;28;20052;-65
2021/06/07 00:30:22;;;;;;;6.20;4.28;;;10.70;99.90;;;;;;5045235;28;20081;-65
2021/06/07 00:32:48;;;;;;;7.68;5.00;;;10.70;99.90;;;;;;5045613;28;20053;-65
2021/06/07 00:35:18;;;;;;;4.53;3.97;;;10.70;99.90;;;;;;5045241;28;20133;-66
2021/06/07 00:37:44;;;;;;;6.70;4.85;;;10.80;99.90;;;;;;5045437;28;20049;-65
2021/06/07 00:40:10;;;;;;;7.18;4.88;;;10.80;99.90;;;;;;5044780;28;20037;-65
2021/06/07 00:42:36;;;;;;;5.05;4.50;;;10.80;99.90;;;;;;5044626;28;20085;-65
2021/06/07 00:45:04;;;;;;;12.13;4.85;;;10.80;99.90;;;;;;5043701;28;20093;-65
2021/06/07 00:47:38;;;;;;;5.75;5.00;;;10.80;99.90;;;;;;5044981;28;20052;-65
2021/06/07 00:50:09;;;;;;;5.90;4.80;;;10.80;99.90;;;;;;5044608;28;20061;-65
2021/06/07 00:52:36;;;;;;;5.28;4.22;;;10.80;99.90;;;;;;5044334;28;20046;-65
2021/06/07 00:55:03;;;;;;;5.82;4.30;;;10.80;99.90;;;;;;5044112;28;20083;-66
2021/06/07 00:57:29;;;;;;;10.35;4.30;;;10.90;99.90;;;;;;5045041;28;20041;-65
2021/06/07 00:59:55;;;;;;;8.30;5.10;;;10.80;99.90;;;;;;5044117;28;20059;-65
2021/06/07 01:02:21;;;;;;;11.02;4.47;;;10.80;99.90;;;;;;5044517;28;20073;-65
2021/06/07 01:04:48;;;;;;;6.70;4.22;;;10.80;99.90;;;;;;5044199;28;20061;-65
2021/06/07 01:07:13;;;;;;;5.90;4.47;;;10.80;99.90;;;;;;5044388;28;20094;-66
2021/06/07 01:09:39;;;;;;;7.28;4.95;;;10.80;99.90;;;;;;5044142;28;20069;-65
2021/06/07 01:12:05;;;;;;;6.18;4.72;;;10.80;99.90;;;;;;5044357;28;20046;-65
2021/06/07 01:14:31;;;;;;;5.90;5.00;;;10.90;99.90;;;;;;5043326;28;20056;-65
2021/06/07 01:16:57;;;;;;;6.15;5.00;;;10.90;99.90;;;;;;5044175;28;20045;-65
2021/06/07 01:19:23;;;;;;;5.65;4.65;;;10.90;99.90;;;;;;5042515;28;20041;-65
2021/06/07 01:21:50;;;;;;;7.95;4.50;;;10.90;99.90;;;;;;5042251;28;20045;-65
2021/06/07 01:24:16;;;;;;;7.32;4.38;;;10.90;99.90;;;;;;5043990;28;20044;-65
2021/06/07 01:26:42;;;;;;;7.25;4.53;;;10.90;99.90;;;;;;5043092;28;20041;-65
2021/06/07 01:29:08;;;;;;;6.82;4.30;;;10.80;99.90;;;;;;5043123;28;20045;-65
2021/06/07 01:31:34;;;;;;;4.72;4.07;;;10.80;99.90;;;;;;5043708;28;20045;-65
2021/06/07 01:34:00;;;;;;;6.85;4.03;;;10.70;99.90;;;;;;5043862;28;20041;-65
2021/06/07 01:36:26;;;;;;;7.72;3.92;;;10.70;99.90;;;;;;5043803;28;20496;-65
2021/06/07 01:38:52;;;;;;;5.65;3.70;;;10.70;99.90;;;;;;5043418;28;20078;-66
2021/06/07 01:41:19;;;;;;;5.47;4.47;;;10.70;99.90;;;;;;5043335;28;20041;-66
2021/06/07 01:43:46;;;;;;;5.30;4.63;;;10.70;99.90;;;;;;5043777;28;20131;-65
2021/06/07 01:46:12;;;;;;;7.07;5.13;;;10.70;99.90;;;;;;5043325;28;20045;-65
2021/06/07 01:48:38;;;;;;;6.63;5.22;;;10.70;99.90;;;;;;5043883;28;20050;-65
2021/06/07 01:51:07;;;;;;;9.45;4.95;;;10.60;99.90;;;;;;5043386;28;20093;-65
2021/06/07 01:53:34;;;;;;;6.95;4.93;;;10.70;99.90;;;;;;5043354;28;20041;-65
2021/06/07 01:56:03;;;;;;;7.47;4.83;;;10.70;99.90;;;;;;5043301;28;20050;-65
2021/06/07 01:58:30;;;;;;;9.55;5.15;;;10.70;99.90;;;;;;5043206;28;20603;-64
2021/06/07 02:00:58;;;;;;;11.95;5.18;;;10.60;99.90;;;;;;5043055;28;20068;-65
2021/06/07 02:03:25;;;;;;;6.53;5.15;;;10.60;99.90;;;;;;5043418;28;20045;-65
2021/06/07 02:06:04;;;;;;;8.65;5.82;;;10.60;99.90;;;;;;5043250;28;20096;-65
2021/06/07 02:08:31;;;;;;;5.35;4.45;;;10.60;99.90;;;;;;5043481;28;20071;-65
2021/06/07 02:11:00;;;;;;;11.00;5.13;;;10.60;99.90;;;;;;5043051;28;20049;-65
2021/06/07 02:13:26;;;;;;;8.57;4.85;;;10.60;99.90;;;;;;5042431;28;20038;-66
2021/06/07 02:16:14;;;;;;;6.70;4.80;;;10.70;99.90;;;;;;5042720;28;20057;-66
2021/06/07 02:18:40;;;;;;;6.28;4.72;;;10.80;99.90;;;;;;5043075;28;20045;-65
2021/06/07 02:21:08;;;;;;;8.40;5.15;;;10.80;99.90;;;;;;5042795;28;20049;-65
2021/06/07 02:23:34;;;;;;;11.15;5.72;;;10.90;99.90;;;;;;5043148;28;20045;-65
2021/06/07 02:26:00;;;;;;;8.48;5.10;;;10.90;99.90;;;;;;5042757;28;20291;-65
2021/06/07 02:28:27;;;;;;;8.10;5.00;;;10.90;99.90;;;;;;5043729;28;20334;-65
2021/06/07 02:30:53;;;;;;;7.82;5.57;;;10.80;99.90;;;;;;5042238;28;20042;-65
2021/06/07 02:33:19;;;;;;;8.68;5.45;;;10.80;99.90;;;;;;5042932;28;20048;-65
2021/06/07 02:35:45;;;;;;;9.10;5.35;;;10.80;99.90;;;;;;5042884;28;20041;-66
2021/06/07 02:38:12;;;;;;;8.98;5.40;;;10.90;99.90;;;;;;5042927;28;20172;-64
2021/06/07 02:40:40;;;;;;;8.88;5.47;;;10.90;99.90;;;;;;5043485;28;20127;-64
2021/06/07 02:43:07;;;;;;;9.50;6.13;;;10.80;99.90;;;;;;5042818;28;20048;-64
2021/06/07 02:45:34;;;;;;;6.93;5.28;;;10.80;99.90;;;;;;5042468;28;20052;-65
2021/06/07 02:48:00;;;;;;;9.90;5.97;;;10.70;99.90;;;;;;5042683;28;20064;-64
2021/06/07 02:50:36;;;;;;;8.93;6.25;;;10.70;99.90;;;;;;5043004;28;20048;-66
2021/06/07 02:53:03;;;;;;;8.23;5.55;;;10.70;99.90;;;;;;5042959;28;20048;-66
2021/06/07 02:55:33;;;;;;;10.05;6.30;;;10.70;99.90;;;;;;5043065;28;20113;-64
2021/06/07 02:57:59;;;;;;;8.45;7.05;;;10.60;99.90;;;;;;5042607;28;20046;-64
2021/06/07 03:00:47;;;;;;;17.58;7.22;;;10.60;99.90;;;;;;5041913;28;20044;-64
2021/06/07 03:03:13;;;;;;;7.90;6.88;;;10.60;99.90;;;;;;5042519;28;20052;-64
2021/06/07 03:05:41;;;;;;;10.73;7.40;;;10.50;99.90;;;;;;5042426;28;20061;-66
2021/06/07 03:08:09;;;;;;;8.40;7.50;;;10.60;99.90;;;;;;5045728;28;20048;-65
2021/06/07 03:10:35;;;;;;;;;;;10.60;99.90;;;;;;5033052;28;20196;-64
2021/06/07 03:13:00;;;;;;;11.10;8.23;;;10.60;99.90;;;;;;5046095;28;19940;-66
2021/06/07 03:15:28;;;;;;;16.45;8.65;;;10.70;99.90;;;;;;5045595;28;20069;-65
2021/06/07 03:17:54;;;;;;;12.82;9.23;;;10.40;99.90;;;;;;5046495;28;20052;-65
2021/06/07 03:20:26;;;;;;;10.87;8.40;;;10.50;99.90;;;;;;5047121;28;20042;-65
2021/06/07 03:22:53;;;;;;;14.15;9.27;;;10.40;99.90;;;;;;5062133;28;20084;-65
2021/06/07 03:25:19;;;;;;;13.93;9.73;;;10.40;99.90;;;;;;5046138;28;20056;-65
2021/06/07 03:27:45;;;;;;;13.55;9.68;;;10.40;99.90;;;;;;5046031;28;20045;-65
2021/06/07 03:30:12;;;;;;;16.85;10.30;;;10.40;99.90;;;;;;5045463;28;20045;-65
2021/06/07 03:32:38;;;;;;;16.23;9.95;;;10.40;99.90;;;;;;5046289;28;20050;-64
2021/06/07 03:35:09;;;;;;;13.18;8.35;;;10.30;99.90;;;;;;5046197;28;20072;-65
2021/06/07 03:37:35;;;;;;;12.60;9.13;;;10.30;99.90;;;;;;5045898;28;20098;-65
2021/06/07 03:40:03;;;;;;;12.23;9.15;;;10.30;99.90;;;;;;5061278;28;20128;-65
2021/06/07 03:42:28;;;;;;;14.38;8.70;;;10.20;99.90;;;;;;5045899;28;20037;-65
2021/06/07 03:44:54;;;;;;;12.60;9.23;;;10.20;99.90;;;;;;5045466;28;20065;-64
2021/06/07 03:47:20;;;;;;;12.82;9.65;;;10.20;99.90;;;;;;5046213;28;20052;-65
2021/06/07 03:49:46;;;;;;;19.75;10.70;;;10.20;99.90;;;;;;5045814;28;20049;-65
2021/06/07 03:52:11;;;;;;;15.45;9.30;;;10.30;99.90;;;;;;5045565;28;20416;-65
2021/06/07 03:54:37;;;;;;;14.27;10.15;;;10.30;99.90;;;;;;5045285;28;20068;-65
2021/06/07 03:57:05;;;;;;;14.20;10.88;;;10.40;99.90;;;;;;5046049;28;20201;-65
2021/06/07 03:59:31;;;;;;;22.30;11.55;;;10.50;99.90;;;;;;5045366;28;20072;-65
2021/06/07 04:02:01;;;;;;;17.38;11.73;;;10.50;99.90;;;;;;5045481;28;20049;-65
2021/06/07 04:04:29;;;;;;;19.40;10.57;;;10.60;99.90;;;;;;5045426;28;20038;-65
2021/06/07 04:06:55;;;;;;;19.90;11.00;;;10.60;99.90;;;;;;5045390;28;20148;-64
2021/06/07 04:09:21;;;;;;;18.90;11.90;;;10.70;99.90;;;;;;5045422;28;20041;-64
2021/06/07 04:11:48;;;;;;;11.55;9.48;;;10.80;99.90;;;;;;5045625;28;20069;-65
2021/06/07 04:14:14;;;;;;;14.00;10.30;;;10.80;99.90;;;;;;5044795;28;20041;-64
2021/06/07 04:16:40;;;;;;;17.00;10.10;;;10.80;99.90;;;;;;5045145;28;20519;-64
2021/06/07 04:19:06;;;;;;;14.38;9.82;;;10.80;99.90;;;;;;5043866;28;20574;-65
2021/06/07 04:21:31;;;;;;;18.02;10.73;;;10.90;99.90;;;;;;5045339;28;20079;-65
2021/06/07 04:23:57;;;;;;;17.98;10.35;;;11.00;99.90;;;;;;5045306;28;20552;-65
2021/06/07 04:26:23;;;;;;;15.38;11.02;;;11.00;99.90;;;;;;5044984;28;20052;-64
2021/06/07 04:28:49;;;;;;;14.20;9.85;;;11.10;99.90;;;;;;5045350;28;20069;-65
2021/06/07 04:31:14;;;;;;;15.50;10.13;;;11.20;99.90;;;;;;5044428;28;20037;-65
2021/06/07 04:33:40;;;;;;;26.77;11.88;;;11.20;99.90;;;;;;5044778;28;20041;-64
2021/06/07 04:36:06;;;;;;;15.07;10.15;;;11.30;99.90;;;;;;5045085;28;20049;-65
2021/06/07 04:38:32;;;;;;;14.20;10.50;;;11.30;99.90;;;;;;5044879;28;20068;-65
2021/06/07 04:40:58;;;;;;;19.30;10.57;;;11.30;99.90;;;;;;5044605;28;20083;-65
2021/06/07 04:43:24;;;;;;;15.52;10.93;;;11.30;99.90;;;;;;5044959;28;20048;-65
2021/06/07 04:45:50;;;;;;;15.00;9.75;;;11.40;99.90;;;;;;5044550;28;20049;-65
2021/06/07 04:48:16;;;;;;;11.88;9.13;;;11.50;99.90;;;;;;5045065;28;20049;-65
2021/06/07 04:50:42;;;;;;;11.82;10.45;;;11.50;99.90;;;;;;5044517;28;20075;-65
2021/06/07 04:53:10;;;;;;;12.88;10.82;;;11.60;99.90;;;;;;5044253;28;20323;-65
2021/06/07 04:55:42;;;;;;;11.98;10.48;;;11.70;99.90;;;;;;5044516;28;20049;-65
2021/06/07 04:58:14;;;;;;;13.90;10.30;;;11.80;99.90;;;;;;5044646;28;20045;-65
2021/06/07 05:00:45;;;;;;;12.35;10.75;;;11.80;99.90;;;;;;5044518;28;20101;-65
2021/06/07 05:03:11;;;;;;;17.70;11.73;;;12.00;99.90;;;;;;5044356;28;20422;-64
2021/06/07 05:05:37;;;;;;;21.98;12.80;;;12.10;99.90;;;;;;5043758;28;20041;-64
2021/06/07 05:08:04;;;;;;;16.67;12.63;;;12.20;99.90;;;;;;5044197;28;20041;-64
2021/06/07 05:10:30;;;;;;;19.45;11.00;;;12.30;99.90;;;;;;5044079;28;20064;-64
2021/06/07 05:12:56;;;;;;;14.38;11.05;;;12.40;99.90;;;;;;5044808;28;20136;-63
2021/06/07 05:15:22;;;;;;;17.83;11.18;;;12.60;99.90;;;;;;5043236;28;20517;-64
2021/06/07 05:17:49;;;;;;;12.48;10.80;;;12.70;99.90;;;;;;5044060;28;20052;-64
2021/06/07 05:20:19;;;;;;;15.98;10.25;;;12.90;99.90;;;;;;5043717;28;20045;-64
2021/06/07 05:22:44;;;;;;;11.95;10.10;;;12.90;99.90;;;;;;5044104;28;20342;-64
2021/06/07 05:25:11;;;;;;;13.02;8.70;;;13.00;99.90;;;;;;5044132;28;20283;-64
2021/06/07 05:27:36;;;;;;;12.05;9.20;;;13.20;99.90;;;;;;5040337;28;20093;-66
2021/06/07 05:30:04;;;;;;;11.25;9.00;;;13.30;99.90;;;;;;5042652;28;20053;-64
2021/06/07 05:32:30;;;;;;;;;;;13.30;99.90;;;;;;5044154;28;20072;-64
2021/06/07 05:34:56;;;;;;;9.82;8.38;;;13.40;99.90;;;;;;5043605;28;19928;-64
2021/06/07 05:37:22;;;;;;;11.70;8.73;;;13.40;99.90;;;;;;5044571;28;20049;-64
2021/06/07 05:39:52;;;;;;;11.02;7.43;;;13.50;99.90;;;;;;5042302;28;20052;-66
2021/06/07 05:42:18;;;;;;;10.75;7.75;;;13.70;99.90;;;;;;5043657;28;20096;-64
2021/06/07 05:44:44;;;;;;;8.52;7.30;;;13.80;99.90;;;;;;5042832;28;20179;-64
2021/06/07 05:47:10;;;;;;;7.93;7.13;;;13.80;99.90;;;;;;5035509;28;20037;-65
2021/06/07 05:49:38;;;;;;;11.02;7.32;;;14.00;99.90;;;;;;5043696;28;20057;-64
2021/06/07 05:52:08;;;;;;;13.95;7.18;;;14.10;99.90;;;;;;5043756;28;20053;-64
2021/06/07 05:54:36;;;;;;;11.48;7.38;;;14.20;99.90;;;;;;5043365;28;20042;-65
2021/06/07 05:57:03;;;;;;;13.25;6.35;;;14.30;99.90;;;;;;5043153;28;20096;-65
2021/06/07 05:59:29;;;;;;;7.78;6.00;;;14.50;99.90;;;;;;5043083;28;20045;-65
2021/06/07 06:01:55;;;;;;;5.80;5.13;;;14.60;99.90;;;;;;5043603;28;20120;-64
2021/06/07 06:04:22;;;;;;;8.15;5.40;;;14.80;99.90;;;;;;5043299;28;20049;-64
2021/06/07 06:06:49;;;;;;;7.82;4.90;;;14.90;99.90;;;;;;5043478;28;20048;-64
2021/06/07 06:09:15;;;;;;;7.88;4.68;;;14.90;99.90;;;;;;5043026;28;20041;-66
2021/06/07 06:11:41;;;;;;;6.28;4.88;;;15.10;99.90;;;;;;5043069;28;20037;-66
2021/06/07 06:14:08;;;;;;;5.45;4.45;;;15.30;99.90;;;;;;5042562;28;20044;-65
2021/06/07 06:16:35;;;;;;;6.75;5.13;;;15.40;99.90;;;;;;5043249;28;20116;-65
2021/06/07 06:19:00;;;;;;;5.53;4.43;;;15.50;99.90;;;;;;5042994;28;20195;-65
2021/06/07 06:21:28;;;;;;;5.90;4.00;;;15.60;99.90;;;;;;5043117;28;20258;-65
2021/06/07 06:23:55;;;;;;;8.77;4.82;;;15.70;99.90;;;;;;5041464;28;20037;-65
2021/06/07 06:26:22;;;;;;;8.73;4.70;;;15.90;99.90;;;;;;5043209;28;20045;-65
2021/06/07 06:28:48;;;;;;;6.88;3.88;;;16.00;99.90;;;;;;5043019;28;20093;-65
2021/06/07 06:31:15;;;;;;;5.65;3.92;;;16.10;99.90;;;;;;5042468;28;20042;-65
2021/06/07 06:33:41;;;;;;;7.07;3.90;;;16.20;99.90;;;;;;5042708;28;20041;-67
2021/06/07 06:36:08;;;;;;;5.40;3.72;;;16.30;99.90;;;;;;5042500;28;20068;-67
2021/06/07 06:38:34;;;;;;;10.10;3.50;;;16.50;99.90;;;;;;5042858;28;20377;-65
2021/06/07 06:41:00;;;;;;;4.65;3.75;;;16.50;99.90;;;;;;5043236;28;20068;-65
2021/06/07 06:43:27;;;;;;;6.55;3.85;;;16.40;99.90;;;;;;5046525;28;20057;-65
2021/06/07 06:45:53;;;;;;;6.75;3.78;;;16.60;99.90;;;;;;5046566;28;20041;-66
2021/06/07 06:48:19;;;;;;;4.70;3.42;;;16.70;99.90;;;;;;5046784;28;20041;-66
2021/06/07 06:50:46;;;;;;;7.00;4.85;;;16.80;99.90;;;;;;5046907;28;20041;-65
2021/06/07 06:53:16;;;;;;;5.72;3.55;;;16.90;99.90;;;;;;5046903;28;20057;-65
2021/06/07 06:55:42;;;;;;;5.53;2.97;;;17.00;99.90;;;;;;5046732;28;20048;-66
2021/06/07 06:58:08;;;;;;;3.83;2.75;;;17.00;99.90;;;;;;5046639;28;20041;-66
2021/06/07 07:00:37;;;;;;;3.95;2.70;;;16.80;99.90;;;;;;5045682;28;20041;-66
2021/06/07 07:03:23;;;;;;;4.70;2.65;;;16.90;99.90;;;;;;5046874;28;20157;-66
2021/06/07 07:05:50;;;;;;;4.18;2.55;;;17.00;99.90;;;;;;5042697;28;20060;-66
2021/06/07 07:08:19;;;;;;;5.80;2.60;;;17.10;99.90;;;;;;5046998;28;20045;-66
2021/06/07 07:10:45;;;;;;;6.15;3.20;;;17.30;99.90;;;;;;5046830;28;20075;-67
2021/06/07 07:13:12;;;;;;;6.70;2.58;;;17.10;99.90;;;;;;5046787;28;20054;-67
2021/06/07 07:15:38;;;;;;;3.40;2.63;;;17.30;99.90;;;;;;5045541;28;20050;-66
2021/06/07 07:18:07;;;;;;;4.07;2.42;;;17.20;99.90;;;;;;5047235;28;20049;-67
2021/06/07 07:20:33;;;;;;;8.82;3.35;;;17.30;99.90;;;;;;5047600;28;20110;-66
2021/06/07 07:22:59;;;;;;;6.20;3.00;;;17.40;99.90;;;;;;5045135;28;20049;-66
2021/06/07 07:25:24;;;;;;;5.70;3.05;;;17.30;99.90;;;;;;5045199;28;20045;-67
2021/06/07 07:27:50;;;;;;;6.80;3.22;;;17.50;99.90;;;;;;5044480;28;20048;-67
2021/06/07 07:30:19;;;;;;;5.15;3.15;;;17.50;99.90;;;;;;5043959;28;20045;-67
2021/06/07 07:32:47;;;;;;;7.85;3.38;;;17.60;99.90;;;;;;5044601;28;20053;-66
2021/06/07 07:35:14;;;;;;;3.83;3.40;;;17.70;99.90;;;;;;5042348;28;20100;-66
2021/06/07 07:37:41;;;;;;;4.63;2.67;;;17.70;99.90;;;;;;5037639;28;20049;-66
2021/06/07 07:40:10;;;;;;;8.13;3.53;;;17.90;99.90;;;;;;5045353;28;20052;-66
2021/06/07 07:42:37;;;;;;;4.70;2.30;;;18.00;99.90;;;;;;5042255;28;20049;-66
2021/06/07 07:45:05;;;;;;;5.63;2.60;;;17.80;99.90;;;;;;5039867;28;20072;-66
2021/06/07 07:47:31;;;;;;;5.70;2.35;;;17.90;99.90;;;;;;5036477;28;20064;-66
2021/06/07 07:49:57;;;;;;;2.78;2.10;;;17.80;99.90;;;;;;5038083;28;20037;-66
2021/06/07 07:52:23;;;;;;;6.05;2.60;;;18.00;99.90;;;;;;5044217;28;20048;-66
2021/06/07 07:54:54;;;;;;;3.35;2.17;;;18.10;99.90;;;;;;5044008;28;20046;-66
2021/06/07 07:57:21;;;;;;;3.40;2.15;;;17.60;99.90;;;;;;5037506;28;20077;-66
2021/06/07 07:59:47;;;;;;;3.05;2.20;;;17.80;99.90;;;;;;5039518;28;20045;-66
2021/06/07 08:02:13;;;;;;;4.50;1.85;;;18.00;99.90;;;;;;5045151;28;20045;-66
2021/06/07 08:04:39;;;;;;;4.18;1.75;;;17.90;99.90;;;;;;5044056;28;20191;-67
2021/06/07 08:07:05;;;;;;;3.17;1.60;;;17.90;99.90;;;;;;5036410;28;20041;-66
2021/06/07 08:09:32;;;;;;;2.47;1.52;;;17.90;99.90;;;;;;5040906;28;20057;-66
2021/06/07 08:12:00;;;;;;;3.92;1.83;;;18.10;99.90;;;;;;5041561;28;20809;-66
2021/06/07 08:14:26;;;;;;;6.00;2.20;;;18.00;99.90;;;;;;5043120;28;20137;-65
2021/06/07 08:16:54;;;;;;;4.90;1.83;;;18.20;99.90;;;;;;5042759;28;20037;-66
2021/06/07 08:19:20;;;;;;;3.03;1.95;;;18.30;99.90;;;;;;5044712;28;20045;-66
2021/06/07 08:21:46;;;;;;;4.05;2.10;;;18.30;99.90;;;;;;5044180;28;20056;-66
2021/06/07 08:24:11;;;;;;;4.40;2.22;;;18.40;99.90;;;;;;5039229;28;20045;-69
2021/06/07 08:26:37;;;;;;;3.60;2.38;;;18.50;99.90;;;;;;5037215;28;20046;-68
2021/06/07 08:29:03;;;;;;;6.18;1.83;;;18.70;99.90;;;;;;5039989;28;20034;-67
2021/06/07 08:31:30;;;;;;;3.65;1.70;;;18.70;99.90;;;;;;5042584;28;20044;-67
2021/06/07 08:33:56;;;;;;;3.72;1.38;;;18.50;99.90;;;;;;5042720;28;20060;-67
2021/06/07 08:36:22;;;;;;;1.90;1.20;;;18.30;99.90;;;;;;5039117;28;20050;-65
2021/06/07 08:38:48;;;;;;;3.65;1.40;;;18.30;99.90;;;;;;5042967;28;20069;-67
2021/06/07 08:41:14;;;;;;;5.60;1.63;;;18.30;99.90;;;;;;5032448;28;20041;-65
2021/06/07 08:43:39;;;;;;;3.35;1.88;;;18.60;99.90;;;;;;5039183;28;20045;-68
2021/06/07 08:46:05;;;;;;;4.50;1.38;;;18.30;99.90;;;;;;5038365;28;20520;-65
2021/06/07 08:48:31;;;;;;;2.83;1.42;;;18.30;99.90;;;;;;5041810;28;20041;-66
2021/06/07 08:51:01;;;;;;;3.30;1.88;;;18.30;99.90;;;;;;5036023;28;20064;-66
2021/06/07 08:53:27;;;;;;;2.33;1.60;;;18.30;99.90;;;;;;5041006;28;20045;-66
2021/06/07 08:55:53;;;;;;;4.35;1.77;;;18.20;99.90;;;;;;5040687;28;20092;-74
2021/06/07 08:58:19;;;;;;;3.03;2.22;;;18.20;99.90;;;;;;5033632;28;20046;-74
2021/06/07 09:00:45;;;;;;;6.38;1.80;;;18.30;99.90;;;;;;5039014;28;20079;-68
2021/06/07 09:03:16;;;;;;;3.50;1.50;;;18.40;99.90;;;;;;5034743;28;20052;-69
2021/06/07 09:05:44;;;;;;;4.55;1.73;;;18.60;99.90;;;;;;5032124;28;20061;-64
2021/06/07 09:08:18;;;;;;;5.10;2.10;;;18.70;99.90;;;;;;5039977;28;20045;-63
2021/06/07 09:10:47;;;;;;;3.20;1.58;;;18.70;99.90;;;;;;5034473;28;20568;-71
2021/06/07 09:13:16;;;;;;;2.60;1.60;;;18.70;99.50;;;;;;5040449;28;20060;-71
2021/06/07 09:15:45;;;;;;;3.63;2.25;;;18.70;99.40;;;;;;5034520;28;20057;-62
2021/06/07 09:18:14;;;;;;;4.43;1.90;;;18.50;99.60;;;;;;5039361;28;20584;-62
2021/06/07 09:20:41;;;;;;;4.25;2.00;;;18.50;99.90;;;;;;5040861;28;20046;-75
2021/06/07 09:23:14;;;;;;;3.25;1.85;;;18.70;99.90;;;;;;5036468;28;20497;-76
2021/06/07 09:25:47;;;;;;;3.95;2.40;;;18.80;99.90;;;;;;5041947;28;20041;-75
2021/06/07 09:28:20;;;;;;;2.83;1.85;;;18.80;99.90;;;;;;5043670;28;20053;-76
2021/06/07 09:30:58;;;;;;;3.38;1.90;;;18.90;99.90;;;;;;5042727;28;20089;-76
2021/06/07 09:33:30;;;;;;;3.67;1.77;;;19.00;99.90;;;;;;5037432;28;20049;-64
2021/06/07 09:36:10;;;;;;;3.58;1.90;;;18.70;99.00;;;;;;5037361;28;20052;-63
2021/06/07 09:39:04;;;;;;;5.05;2.00;;;18.60;99.60;;;;;;5042209;28;20037;-63
2021/06/07 09:41:52;;;;;;;4.35;2.30;;;18.70;99.60;;;;;;5040567;28;20046;-65
2021/06/07 09:44:18;;;;;;;;;;;18.90;99.90;;;;;;5038496;28;20053;-63
2021/06/07 09:46:44;;;;;;;3.20;2.60;;;18.90;99.60;;;;;;5042136;28;20019;-70
2021/06/07 09:49:11;;;;;;;5.05;2.40;;;18.80;99.50;;;;;;5036092;28;20129;-67
2021/06/07 09:51:39;;;;;;;4.55;2.75;;;18.70;99.40;;;;;;5036914;28;20045;-64
2021/06/07 09:54:06;;;;;;;4.78;2.42;;;18.80;99.90;;;;;;5040585;28;20064;-62
2021/06/07 09:56:46;;;;;;;3.97;1.83;;;18.80;98.60;;;;;;5041407;28;20279;-64
2021/06/07 09:59:32;;;;;;;7.60;2.70;;;18.70;99.90;;;;;;5040737;28;20038;-64
2021/06/07 10:01:59;;;;;;;3.50;2.10;;;19.00;99.90;;;;;;5040819;28;20056;-64
2021/06/07 10:04:47;;;;;;;3.83;2.10;;;19.10;99.90;;;;;;5041904;28;20037;-62
2021/06/07 10:07:13;;;;;;;4.57;2.47;;;19.20;99.90;;;;;;5039759;28;20041;-63
2021/06/07 10:09:38;;;;;;;3.85;2.10;;;19.10;98.50;;;;;;5035552;28;20075;-63
2021/06/07 10:12:26;;;;;;;4.40;2.10;;;19.20;99.90;;;;;;5038986;28;20063;-62
2021/06/07 10:14:52;;;;;;;5.43;2.67;;;19.30;99.80;;;;;;5035800;28;20087;-66
2021/06/07 10:17:17;;;;;;;2.30;1.70;;;19.30;99.90;;;;;;5038895;28;20037;-67
2021/06/07 10:19:58;;;;;;;4.28;1.58;;;19.20;96.80;;;;;;5037187;28;20064;-66
2021/06/07 10:22:24;;;;;;;2.95;1.90;;;19.20;99.80;;;;;;5037937;28;20049;-71
2021/06/07 10:24:50;;;;;;;4.25;1.95;;;19.20;99.90;;;;;;5041238;28;20129;-72
2021/06/07 10:27:16;;;;;;;4.00;2.60;;;19.60;99.90;;;;;;5034214;28;20046;-63
2021/06/07 10:29:42;;;;;;;4.38;2.60;;;19.50;98.80;;;;;;5039355;28;20041;-72
2021/06/07 10:32:24;;;;;;;4.17;2.43;;;19.20;99.90;;;;;;5040810;28;20050;-72
2021/06/07 10:35:00;;;;;;;2.33;2.10;;;19.50;99.90;;;;;;5037923;28;20037;-72
2021/06/07 10:37:28;;;;;;;6.93;2.60;;;19.40;97.70;;;;;;5031921;28;20041;-67
2021/06/07 10:40:19;;;;;;;7.85;2.00;;;19.30;99.00;;;;;;5038062;28;20041;-68
2021/06/07 10:43:03;;;;;;;3.83;2.75;;;19.40;98.40;;;;;;5041652;28;20042;-66
2021/06/07 10:45:38;;;;;;;5.70;2.40;;;19.40;99.90;;;;;;5038275;28;20046;-68
2021/06/07 10:48:06;;;;;;;4.35;2.63;;;19.40;99.90;;;;;;5036072;28;20076;-66
2021/06/07 10:50:40;;;;;;;5.72;1.98;;;19.10;99.60;;;;;;5040050;28;20488;-67
2021/06/07 10:53:07;;;;;;;5.30;2.42;;;19.20;97.00;;;;;;5036265;28;20113;-66
2021/06/07 10:55:34;;;;;;;5.00;2.40;;;19.00;98.20;;;;;;5033167;28;20096;-64
2021/06/07 10:58:12;;;;;;;5.00;1.90;;;19.10;99.70;;;;;;5037865;28;20308;-64
2021/06/07 11:00:46;;;;;;;4.80;2.42;;;19.40;99.40;;;;;;5038325;28;20101;-64
2021/06/07 11:03:25;;;;;;;3.45;2.28;;;19.30;99.00;;;;;;5034083;28;20086;-64
2021/06/07 11:05:56;;;;;;;4.70;2.22;;;19.30;99.70;;;;;;5033343;28;20119;-64
2021/06/07 11:08:25;;;;;;;4.00;2.00;;;19.60;99.80;;;;;;5040731;28;20045;-65
2021/06/07 11:11:05;;;;;;;4.93;2.10;;;19.80;99.90;;;;;;5030387;28;20464;-67
2021/06/07 11:13:53;;;;;;;5.10;2.05;;;19.70;99.20;;;;;;5041756;28;20053;-64
2021/06/07 11:16:26;;;;;;;9.90;2.20;;;20.00;99.50;;;;;;5037010;28;20101;-69
2021/06/07 11:19:03;;;;;;;3.30;2.00;;;19.80;98.90;;;;;;5033651;28;20076;-65
2021/06/07 11:21:37;;;;;;;4.20;1.83;;;19.70;97.90;;;;;;5037696;28;20056;-65
2021/06/07 11:24:31;;;;;;;3.53;2.25;;;20.00;99.60;;;;;;5038483;28;20045;-65
2021/06/07 11:26:59;;;;;;;3.65;1.58;;;19.80;97.20;;;;;;5042570;28;20091;-72
2021/06/07 11:29:25;;;;;;;9.48;1.95;;;20.00;98.90;;;;;;5041500;28;20069;-72
2021/06/07 11:31:56;;;;;;;3.40;1.52;;;20.20;97.00;;;;;;5036665;28;20084;-72
2021/06/07 11:34:41;;;;;;;3.47;1.70;;;;;;;;;;5039799;28;20050;-69
2021/06/07 11:37:09;;;;;;;3.85;1.60;;;21.30;93.40;;;;;;5044374;28;20307;-68
2021/06/07 11:39:43;;;;;;;2.25;1.70;;;21.60;95.90;;;;;;5045678;28;20033;-67
2021/06/07 11:42:15;;;;;;;5.07;2.15;;;22.00;92.00;;;;;;5040029;28;20068;-66
2021/06/07 11:44:46;;;;;;;4.43;2.38;;;21.50;90.60;;;;;;5045386;28;20095;-64
2021/06/07 11:47:13;;;;;;;5.80;1.80;;;22.10;91.00;;;;;;5045374;28;20564;-62
2021/06/07 11:49:57;;;;;;;5.63;2.55;;;22.20;93.50;;;;;;5040675;28;20064;-64
2021/06/07 11:52:48;;;;;;;2.60;1.50;;;22.60;85.80;;;;;;5043913;28;20067;-70
2021/06/07 11:55:31;;;;;;;4.93;1.40;;;22.20;85.90;;;;;;5037945;28;20041;-74
2021/06/07 11:58:21;;;;;;;4.63;1.63;;;22.60;90.00;;;;;;5028574;28;20045;-65
2021/06/07 12:00:53;;;;;;;2.15;1.25;;;23.40;77.60;;;;;;5041758;28;20445;-66
2021/06/07 12:03:28;;;;;;;2.38;1.40;;;22.80;82.70;;;;;;5040603;28;20041;-63
2021/06/07 12:05:55;;;;;;;3.00;1.65;;;22.90;76.30;;;;;;5036706;28;20045;-65
2021/06/07 12:08:23;;;;;;;2.67;1.50;;;23.10;87.30;;;;;;5036135;28;20128;-67
2021/06/07 12:10:52;;;;;;;3.80;1.98;;;23.10;82.30;;;;;;5043336;28;20041;-66
2021/06/07 12:13:23;;;;;;;5.97;1.80;;;23.10;71.40;;;;;;5040526;28;20050;-63
2021/06/07 12:15:56;;;;;;;4.85;1.65;;;22.70;79.40;;;;;;5037711;28;20069;-65
2021/06/07 12:18:30;;;;;;;3.63;1.52;;;22.80;78.80;;;;;;5043554;28;20075;-65
2021/06/07 12:21:02;;;;;;;6.30;1.83;;;23.20;78.40;;;;;;5033430;28;20049;-69
2021/06/07 12:23:30;;;;;;;3.15;1.50;;;24.00;71.50;;;;;;5039180;28;20093;-70
2021/06/07 12:28:36;;;;;;;3.72;1.30;;;24.40;77.50;;;;;;5040904;28;20191;-65
2021/06/07 12:31:02;;;;;;;3.42;1.70;;;24.20;75.80;;;;;;5041600;28;20448;-65
2021/06/07 12:33:31;;;;;;;4.57;1.83;;;23.60;74.50;;;;;;5041114;28;20037;-64
2021/06/07 12:35:58;;;;;;;2.42;1.45;;;23.50;77.70;;;;;;5040089;28;20063;-69
2021/06/07 12:38:25;;;;;;;3.33;1.73;;;23.20;76.20;;;;;;5054831;28;20053;-70
2021/06/07 12:40:53;;;;;;;5.07;2.00;;;23.40;73.80;;;;;;5033977;28;20045;-70
2021/06/07 12:43:29;;;;;;;2.35;1.40;;;23.20;78.50;;;;;;5032635;28;20196;-69
2021/06/07 12:46:00;;;;;;;3.03;1.67;;;23.40;74.50;;;;;;5041571;28;20045;-66
2021/06/07 12:48:39;;;;;;;4.22;1.42;;;23.90;78.60;;;;;;5040738;28;20041;-64
2021/06/07 12:51:07;;;;;;;5.13;2.40;;;23.40;75.50;;;;;;5036711;28;20038;-64
2021/06/07 12:53:56;;;;;;;4.95;2.03;;;23.60;79.60;;;;;;5032798;28;20037;-65
2021/06/07 12:56:28;;;;;;;3.22;2.30;;;24.20;75.70;;;;;;5042615;28;20046;-65